Time;durP1;ratioP1;P1;durP2;ratioP2;P2;SDS_P1;SDS_P2;PMS_P1;PMS_P2;Temp;Humidity;BMP_temperature;BMP_pressure;BME280_temperature;BME280_humidity;BME280_pressure;Samples;Min_cycle;Max_cycle;Signal;HPM_P1;HPM_P2
2023/07/05 00:00:54;;;;;;;21.15;10.63;;;25.60;80.70;;;;;;6184738;23;20043;-75
2023/07/05 00:03:20;;;;;;;24.92;11.35;;;25.60;80.90;;;;;;6185224;23;20005;-76
2023/07/05 00:05:47;;;;;;;22.95;10.77;;;25.60;81.10;;;;;;6185526;23;20001;-76
2023/07/05 00:08:13;;;;;;;21.30;11.18;;;25.60;81.40;;;;;;6158929;23;20012;-75
2023/07/05 00:10:38;;;;;;;21.73;10.13;;;25.60;81.30;;;;;;6185371;23;20001;-76
2023/07/05 00:13:04;;;;;;;23.52;10.50;;;25.50;81.40;;;;;;6184963;23;20084;-76
2023/07/05 00:15:31;;;;;;;21.70;11.35;;;25.50;81.70;;;;;;6184890;23;20001;-74
2023/07/05 00:17:57;;;;;;;23.10;11.02;;;25.50;81.80;;;;;;6158623;23;20028;-75
2023/07/05 00:20:23;;;;;;;24.52;10.80;;;25.50;82.00;;;;;;6184957;23;20008;-75
2023/07/05 00:22:49;;;;;;;23.23;10.82;;;25.50;82.30;;;;;;6184875;23;20005;-77
2023/07/05 00:25:15;;;;;;;21.08;10.90;;;25.50;82.20;;;;;;6184538;23;20476;-76
2023/07/05 00:27:41;;;;;;;22.92;11.25;;;25.40;82.20;;;;;;6184672;23;20058;-74
2023/07/05 00:30:07;;;;;;;20.58;10.98;;;25.50;82.20;;;;;;6158223;23;20079;-76
2023/07/05 00:32:33;;;;;;;39.78;12.02;;;25.50;82.10;;;;;;6184652;23;20064;-75
2023/07/05 00:34:59;;;;;;;20.83;10.57;;;25.50;81.90;;;;;;6185162;23;20327;-76
2023/07/05 00:37:25;;;;;;;23.00;11.20;;;25.50;81.70;;;;;;6185098;23;20085;-75
2023/07/05 00:39:50;;;;;;;18.67;10.25;;;25.50;81.80;;;;;;6184962;23;19997;-75
2023/07/05 00:42:16;;;;;;;24.02;11.07;;;25.50;82.00;;;;;;6184680;23;20439;-76
2023/07/05 00:44:42;;;;;;;22.48;10.75;;;25.50;82.10;;;;;;6185544;23;20072;-77
2023/07/05 00:47:25;;;;;;;20.10;11.05;;;25.50;82.10;;;;;;6185270;23;20016;-72
2023/07/05 00:49:51;;;;;;;21.25;10.43;;;25.50;82.10;;;;;;6184832;23;20001;-76
2023/07/05 00:52:18;;;;;;;24.45;11.68;;;25.50;82.20;;;;;;6184769;23;20005;-75
2023/07/05 00:54:51;;;;;;;20.52;11.13;;;25.50;82.10;;;;;;6158725;23;20017;-76
2023/07/05 00:57:18;;;;;;;24.52;11.73;;;25.50;82.10;;;;;;6185310;23;19997;-76
2023/07/05 00:59:54;;;;;;;21.05;10.77;;;25.50;81.90;;;;;;6185431;23;20013;-78
2023/07/05 01:02:21;;;;;;;21.83;11.35;;;25.40;82.00;;;;;;6184682;23;20047;-78
2023/07/05 01:04:47;;;;;;;18.75;10.55;;;25.30;82.20;;;;;;6158330;23;20044;-75
2023/07/05 01:07:13;;;;;;;23.65;11.73;;;25.30;82.20;;;;;;6157931;23;20451;-77
2023/07/05 01:09:38;;;;;;;23.13;11.55;;;25.30;82.20;;;;;;6184477;23;20400;-76
2023/07/05 01:12:21;;;;;;;22.10;10.88;;;25.40;82.30;;;;;;6184509;23;20060;-76
2023/07/05 01:14:59;;;;;;;23.08;10.93;;;25.40;82.80;;;;;;6185013;23;20001;-75
2023/07/05 01:17:35;;;;;;;22.83;11.50;;;25.40;82.60;;;;;;6158433;23;20016;-76
2023/07/05 01:20:05;;;;;;;20.67;10.93;;;25.40;81.80;;;;;;6184971;23;20394;-73
2023/07/05 01:22:51;;;;;;;23.60;11.00;;;25.40;82.40;;;;;;6184689;23;20011;-72
2023/07/05 01:25:37;;;;;;;22.50;11.05;;;25.40;82.40;;;;;;6184473;23;20055;-76
2023/07/05 01:28:40;;;;;;;22.30;11.88;;;25.40;82.50;;;;;;6184703;23;20013;-78
2023/07/05 01:31:30;;;;;;;20.80;11.13;;;25.40;82.50;;;;;;6184796;23;20025;-76
2023/07/05 01:34:22;;;;;;;23.67;12.27;;;25.30;82.70;;;;;;6184333;23;20430;-75
2023/07/05 01:36:48;;;;;;;22.02;11.73;;;25.30;83.00;;;;;;6158313;23;20004;-78
2023/07/05 01:39:14;;;;;;;20.48;11.45;;;25.30;82.70;;;;;;6184386;23;20009;-77
2023/07/05 01:41:40;;;;;;;23.40;12.00;;;25.30;82.80;;;;;;6184759;23;19997;-76
2023/07/05 01:44:09;;;;;;;20.30;11.30;;;25.20;82.90;;;;;;6184316;23;20001;-75
2023/07/05 01:46:55;;;;;;;20.88;10.93;;;25.10;82.80;;;;;;6184258;23;20399;-77
2023/07/05 01:49:52;;;;;;;22.23;11.88;;;25.10;83.30;;;;;;6184359;23;20040;-75
2023/07/05 01:52:32;;;;;;;22.25;12.10;;;25.00;83.60;;;;;;6184076;23;20343;-76
2023/07/05 01:55:06;;;;;;;26.40;12.32;;;25.00;83.90;;;;;;6184007;23;20005;-75
2023/07/05 01:57:46;;;;;;;21.52;10.95;;;25.00;83.50;;;;;;6184145;23;20025;-76
2023/07/05 02:00:20;;;;;;;23.58;11.68;;;25.00;84.10;;;;;;6184335;23;20192;-75
2023/07/05 02:02:57;;;;;;;22.63;11.65;;;25.00;83.50;;;;;;6184179;23;20055;-75
2023/07/05 02:05:27;;;;;;;20.02;11.60;;;25.00;84.20;;;;;;6184129;23;20039;-76
2023/07/05 02:07:53;;;;;;;22.20;12.50;;;25.00;83.70;;;;;;6184145;23;20248;-76
2023/07/05 02:10:21;;;;;;;22.35;11.65;;;25.00;83.60;;;;;;6182361;23;20075;-76
2023/07/05 02:12:47;;;;;;;21.95;11.30;;;25.00;83.80;;;;;;6183567;23;20462;-77
2023/07/05 02:15:13;;;;;;;17.35;11.05;;;25.00;83.70;;;;;;6183941;23;19997;-76
2023/07/05 02:17:39;;;;;;;24.15;11.65;;;25.00;83.60;;;;;;6184195;23;20494;-74
2023/07/05 02:20:06;;;;;;;20.77;10.85;;;25.00;83.30;;;;;;6184206;23;20047;-77
2023/07/05 02:22:32;;;;;;;20.27;11.55;;;25.00;83.50;;;;;;6184360;23;20008;-75
2023/07/05 02:24:58;;;;;;;22.33;11.18;;;25.10;83.30;;;;;;6184471;23;20000;-76
2023/07/05 02:27:23;;;;;;;20.10;10.75;;;25.10;83.10;;;;;;6183670;23;20013;-76
2023/07/05 02:29:50;;;;;;;18.05;10.70;;;25.00;83.30;;;;;;6184084;23;20005;-75
2023/07/05 02:32:16;;;;;;;16.63;10.43;;;25.00;83.40;;;;;;6183820;23;20041;-76
2023/07/05 02:34:42;;;;;;;20.35;10.68;;;24.90;83.50;;;;;;6184004;23;20003;-74
2023/07/05 02:37:10;;;;;;;21.40;11.02;;;25.00;83.60;;;;;;6184086;23;20451;-74
2023/07/05 02:39:36;;;;;;;24.02;11.18;;;25.00;83.60;;;;;;6157540;23;20005;-76
2023/07/05 02:42:02;;;;;;;19.88;10.05;;;24.90;83.40;;;;;;6183733;23;20470;-74
2023/07/05 02:44:28;;;;;;;20.35;10.52;;;24.90;83.50;;;;;;6184057;23;20004;-75
2023/07/05 02:46:54;;;;;;;19.15;10.00;;;24.80;83.40;;;;;;6183917;23;20080;-75
2023/07/05 02:49:19;;;;;;;18.15;9.90;;;24.80;83.50;;;;;;6184210;23;20327;-76
2023/07/05 02:51:45;;;;;;;15.68;9.55;;;24.80;83.60;;;;;;6183930;23;19998;-76
2023/07/05 02:54:11;;;;;;;18.80;9.77;;;24.80;83.50;;;;;;6184234;23;20304;-75
2023/07/05 02:56:37;;;;;;;21.15;9.85;;;24.80;83.40;;;;;;6183810;23;20436;-76
2023/07/05 02:59:02;;;;;;;21.02;10.50;;;24.70;83.50;;;;;;6157382;23;20060;-76
2023/07/05 03:01:28;;;;;;;18.00;9.45;;;24.70;83.40;;;;;;6183782;23;20355;-77
2023/07/05 03:03:54;;;;;;;20.08;10.00;;;24.80;83.10;;;;;;6183669;23;20033;-74
2023/07/05 03:06:19;;;;;;;17.83;10.05;;;24.70;82.90;;;;;;6184037;23;20312;-76
2023/07/05 03:08:45;;;;;;;16.10;9.18;;;24.70;82.80;;;;;;6184055;23;20013;-77
2023/07/05 03:11:11;;;;;;;14.48;9.13;;;24.70;82.70;;;;;;6183677;23;20017;-75
2023/07/05 03:13:37;;;;;;;14.88;9.20;;;24.70;82.80;;;;;;6183141;23;20001;-76
2023/07/05 03:16:03;;;;;;;21.00;9.88;;;24.70;82.80;;;;;;6158548;23;20503;-75
2023/07/05 03:18:29;;;;;;;19.63;10.27;;;24.70;83.20;;;;;;6185479;23;20113;-76
2023/07/05 03:20:55;;;;;;;20.40;10.48;;;24.70;82.80;;;;;;6185791;23;20100;-76
2023/07/05 03:23:20;;;;;;;17.25;10.38;;;24.60;83.30;;;;;;6185300;23;20392;-75
2023/07/05 03:25:57;;;;;;;22.88;10.27;;;24.50;83.30;;;;;;6185508;23;19998;-75
2023/07/05 03:28:29;;;;;;;15.68;9.57;;;24.50;84.00;;;;;;6185737;23;20491;-75
2023/07/05 03:31:06;;;;;;;17.17;9.98;;;24.50;83.60;;;;;;6163106;23;20020;-75
2023/07/05 03:33:32;;;;;;;20.02;9.70;;;24.50;83.40;;;;;;6186765;23;20016;-74
2023/07/05 03:36:05;;;;;;;20.05;9.27;;;24.40;83.60;;;;;;6185418;23;20443;-76
2023/07/05 03:38:32;;;;;;;17.38;8.85;;;24.40;83.80;;;;;;6184263;23;20060;-75
2023/07/05 03:41:04;;;;;;;16.80;8.77;;;24.30;83.90;;;;;;6184784;23;20012;-76
2023/07/05 03:43:32;;;;;;;16.45;8.75;;;24.40;84.50;;;;;;6186882;23;19997;-75
2023/07/05 03:46:02;;;;;;;17.73;8.90;;;24.40;83.80;;;;;;6185514;23;20005;-75
2023/07/05 03:48:30;;;;;;;19.88;9.35;;;24.40;83.80;;;;;;6185490;23;20134;-75
2023/07/05 03:50:57;;;;;;;17.92;9.13;;;24.40;83.70;;;;;;6185431;23;19997;-74
2023/07/05 03:53:23;;;;;;;17.50;9.77;;;24.40;83.20;;;;;;6185517;23;19997;-77
2023/07/05 03:55:49;;;;;;;18.90;9.18;;;24.40;83.20;;;;;;6185306;23;19997;-74
2023/07/05 03:58:15;;;;;;;14.45;8.57;;;24.30;83.10;;;;;;6185654;23;20011;-77
2023/07/05 04:00:41;;;;;;;18.75;8.93;;;24.40;83.00;;;;;;6185309;23;20008;-74
2023/07/05 04:03:07;;;;;;;17.80;8.60;;;24.30;83.00;;;;;;6185230;23;20001;-75
2023/07/05 04:05:33;;;;;;;15.68;8.57;;;24.30;83.00;;;;;;6185127;23;20040;-74
2023/07/05 04:07:59;;;;;;;16.70;8.85;;;24.40;82.90;;;;;;6185513;23;20382;-76
2023/07/05 04:10:25;;;;;;;15.30;8.85;;;24.30;82.80;;;;;;6185346;23;20065;-76
2023/07/05 04:12:50;;;;;;;25.90;9.43;;;24.30;82.90;;;;;;6185264;23;20020;-77
2023/07/05 04:15:16;;;;;;;16.15;8.65;;;24.20;83.10;;;;;;6185320;23;20005;-74
2023/07/05 04:17:42;;;;;;;16.30;8.18;;;24.20;83.30;;;;;;6185154;23;20005;-76
2023/07/05 04:20:08;;;;;;;19.90;9.68;;;24.20;83.30;;;;;;6184892;23;19997;-77
2023/07/05 04:22:39;;;;;;;16.35;8.55;;;24.10;83.20;;;;;;6185179;23;20012;-76
2023/07/05 04:25:05;;;;;;;17.48;8.43;;;24.10;83.20;;;;;;6185042;23;20131;-77
2023/07/05 04:27:31;;;;;;;16.75;8.05;;;24.00;83.50;;;;;;6184892;23;20053;-76
2023/07/05 04:29:56;;;;;;;18.63;8.82;;;24.00;83.40;;;;;;6184776;23;20105;-75
2023/07/05 04:32:22;;;;;;;19.33;9.00;;;24.00;83.60;;;;;;6184679;23;20079;-75
2023/07/05 04:34:48;;;;;;;15.63;8.82;;;23.90;83.40;;;;;;6158647;23;20032;-77
2023/07/05 04:37:13;;;;;;;16.33;9.18;;;23.90;83.40;;;;;;6158738;23;20455;-74
2023/07/05 04:39:39;;;;;;;20.33;8.93;;;24.00;83.40;;;;;;6184481;23;20072;-77
2023/07/05 04:42:05;;;;;;;18.33;8.48;;;24.00;83.10;;;;;;6185048;23;20091;-77
2023/07/05 04:44:31;;;;;;;14.13;8.20;;;24.10;83.00;;;;;;6158831;23;20005;-74
2023/07/05 04:46:56;;;;;;;17.42;9.35;;;24.30;82.70;;;;;;6184873;23;20008;-76
2023/07/05 04:49:22;;;;;;;14.43;8.90;;;24.30;82.40;;;;;;6184691;23;20032;-76
2023/07/05 04:51:48;;;;;;;16.80;8.98;;;24.30;81.90;;;;;;6184805;23;19997;-76
2023/07/05 04:54:16;;;;;;;17.13;9.27;;;24.30;81.80;;;;;;6184482;23;20389;-77
2023/07/05 04:56:42;;;;;;;15.07;8.70;;;24.30;81.60;;;;;;6184389;23;19997;-75
2023/07/05 04:59:08;;;;;;;22.30;9.48;;;24.30;81.70;;;;;;6184610;23;20285;-77
2023/07/05 05:01:34;;;;;;;22.65;9.10;;;24.20;82.00;;;;;;6184972;23;20446;-78
2023/07/05 05:03:59;;;;;;;20.98;10.75;;;24.20;82.00;;;;;;6184507;23;20072;-77
2023/07/05 05:06:25;;;;;;;16.58;9.43;;;24.20;82.30;;;;;;6184165;23;20435;-79
2023/07/05 05:08:51;;;;;;;16.98;8.10;;;24.20;81.90;;;;;;6183820;23;20031;-75
2023/07/05 05:11:16;;;;;;;17.17;9.15;;;24.20;81.90;;;;;;6184401;23;20051;-76
2023/07/05 05:13:42;;;;;;;19.08;8.75;;;24.30;82.00;;;;;;6184324;23;20005;-78
2023/07/05 05:16:08;;;;;;;15.40;7.75;;;24.30;81.20;;;;;;6184379;23;20079;-76
2023/07/05 05:18:35;;;;;;;16.25;8.18;;;24.50;81.00;;;;;;6157972;23;20082;-74
2023/07/05 05:21:01;;;;;;;16.05;7.45;;;24.60;80.60;;;;;;6183594;23;20001;-75
2023/07/05 05:23:29;;;;;;;16.63;7.07;;;24.90;80.30;;;;;;6184096;23;20108;-75
2023/07/05 05:25:54;;;;;;;17.45;7.45;;;25.10;79.00;;;;;;6183962;23;20384;-75
2023/07/05 05:28:20;;;;;;;12.70;7.25;;;25.50;78.00;;;;;;6184273;23;20160;-74
2023/07/05 19:39:21;;;;;;;9.60;3.72;;;28.70;63.20;;;;;;6166976;23;20100;-70
2023/07/05 19:41:46;;;;;;;9.93;3.85;;;28.70;62.80;;;;;;6157519;23;20012;-70
2023/07/05 19:44:12;;;;;;;7.05;3.83;;;28.60;63.00;;;;;;6183804;23;20008;-70
2023/07/05 19:46:38;;;;;;;9.55;4.47;;;28.50;63.30;;;;;;6184371;23;20436;-70
2023/07/05 19:49:04;;;;;;;6.75;3.70;;;28.50;63.50;;;;;;6170719;23;20009;-71
2023/07/05 19:51:31;;;;;;;9.50;4.00;;;28.50;63.90;;;;;;6183515;23;19997;-72
2023/07/05 19:53:56;;;;;;;6.88;3.50;;;28.50;64.20;;;;;;6183570;23;20004;-71
2023/07/05 19:56:23;;;;;;;8.02;4.13;;;28.40;64.60;;;;;;6183020;23;20039;-69
2023/07/05 19:58:49;;;;;;;8.13;3.90;;;28.50;64.90;;;;;;6178589;23;20005;-71
2023/07/05 20:01:15;;;;;;;9.45;4.32;;;28.40;65.20;;;;;;6184043;23;20083;-71
2023/07/05 20:03:42;;;;;;;9.63;4.30;;;28.40;65.30;;;;;;6183728;23;20154;-71
2023/07/05 20:06:08;;;;;;;8.93;4.30;;;28.40;65.70;;;;;;6183909;23;19997;-71
2023/07/05 20:08:34;;;;;;;9.50;3.78;;;28.40;66.00;;;;;;6179991;23;20025;-71
2023/07/05 20:11:08;;;;;;;8.63;3.97;;;28.30;66.10;;;;;;6184457;23;20450;-73
2023/07/05 20:13:35;;;;;;;8.40;3.70;;;28.30;67.30;;;;;;6183998;23;20005;-72
2023/07/05 20:16:01;;;;;;;11.23;3.60;;;28.30;66.90;;;;;;6183665;23;20001;-70
2023/07/05 20:18:27;;;;;;;7.53;3.53;;;28.20;67.60;;;;;;6153013;23;20016;-72
2023/07/05 20:20:53;;;;;;;8.52;3.70;;;28.20;67.80;;;;;;6156580;23;20485;-70
2023/07/05 20:23:19;;;;;;;8.20;3.85;;;28.20;68.00;;;;;;6183380;23;20468;-71
2023/07/05 20:25:48;;;;;;;7.93;3.45;;;28.20;68.60;;;;;;6158264;23;20451;-71
2023/07/05 20:28:16;;;;;;;10.70;3.85;;;28.20;68.50;;;;;;6180380;23;20008;-72
2023/07/05 20:30:42;;;;;;;7.45;3.75;;;28.10;68.50;;;;;;6184005;23;20005;-70
2023/07/05 20:33:08;;;;;;;9.73;4.32;;;28.10;69.30;;;;;;6184516;23;20048;-71
2023/07/05 20:35:34;;;;;;;8.95;4.47;;;28.10;69.50;;;;;;6183574;23;20008;-69
2023/07/05 20:38:00;;;;;;;10.35;4.28;;;28.10;70.00;;;;;;6181654;23;20031;-70
2023/07/05 20:40:29;;;;;;;11.05;4.82;;;28.10;70.50;;;;;;6182649;23;20369;-71
2023/07/05 20:42:54;;;;;;;9.23;4.32;;;28.00;70.20;;;;;;6158765;23;20108;-72
2023/07/05 20:45:21;;;;;;;6.95;4.00;;;28.00;70.70;;;;;;6185235;23;20008;-70
2023/07/05 20:47:47;;;;;;;9.23;4.40;;;28.00;70.70;;;;;;6182990;23;20016;-71
2023/07/05 20:50:14;;;;;;;13.85;3.88;;;27.90;71.20;;;;;;6156625;23;20522;-70
2023/07/05 20:52:41;;;;;;;10.23;3.83;;;27.90;71.90;;;;;;6183827;23;20023;-70
2023/07/05 20:55:11;;;;;;;9.45;4.10;;;27.80;72.10;;;;;;6184265;23;20020;-71
2023/07/05 20:57:37;;;;;;;8.68;3.85;;;27.80;72.20;;;;;;6182470;23;20084;-71
2023/07/05 21:00:10;;;;;;;8.15;3.70;;;27.70;72.40;;;;;;6182230;23;20028;-71
2023/07/05 21:02:36;;;;;;;10.32;4.03;;;27.80;72.30;;;;;;6184293;23;20001;-70
2023/07/05 21:05:03;;;;;;;8.90;4.28;;;27.80;72.80;;;;;;6183665;23;20466;-71
2023/07/05 21:07:29;;;;;;;10.18;4.35;;;27.70;72.70;;;;;;6156673;23;20083;-71
2023/07/05 21:09:56;;;;;;;11.55;4.40;;;27.80;73.40;;;;;;6181638;23;20101;-70
2023/07/05 21:12:25;;;;;;;10.20;4.57;;;27.80;73.90;;;;;;6184230;23;20005;-70
2023/07/05 21:14:51;;;;;;;11.90;4.22;;;27.70;74.10;;;;;;6184042;23;20060;-69
2023/07/05 21:17:16;;;;;;;10.10;4.07;;;27.70;74.50;;;;;;6157012;23;20013;-71
2023/07/05 21:19:42;;;;;;;13.48;4.05;;;27.60;74.40;;;;;;6181479;23;20120;-71
2023/07/05 21:22:08;;;;;;;13.52;4.40;;;27.60;75.00;;;;;;6184644;23;20005;-70
2023/07/05 21:24:33;;;;;;;6.72;3.78;;;27.60;75.20;;;;;;6184517;23;20008;-71
2023/07/05 21:26:59;;;;;;;12.52;4.63;;;27.50;75.60;;;;;;6184178;23;20508;-68
2023/07/05 21:29:25;;;;;;;10.48;4.28;;;27.50;75.50;;;;;;6180656;23;20404;-70
2023/07/05 21:31:52;;;;;;;9.55;4.00;;;27.40;75.80;;;;;;6183963;23;20005;-70
2023/07/05 21:34:18;;;;;;;10.00;3.90;;;27.50;76.40;;;;;;6183850;23;20001;-70
2023/07/05 21:36:44;;;;;;;12.75;4.05;;;27.40;76.40;;;;;;6183823;23;20001;-70
2023/07/05 21:39:11;;;;;;;9.63;3.70;;;27.40;76.70;;;;;;6180194;23;20024;-70
2023/07/05 21:41:38;;;;;;;9.10;4.22;;;27.40;76.90;;;;;;6184355;23;20087;-71
2023/07/05 21:44:11;;;;;;;9.20;3.97;;;27.30;77.20;;;;;;6184392;23;20001;-71
2023/07/05 21:46:39;;;;;;;9.82;4.13;;;27.30;77.10;;;;;;6183913;23;20004;-70
2023/07/05 21:49:05;;;;;;;8.52;3.75;;;27.30;77.20;;;;;;6179989;23;20005;-71
2023/07/05 21:51:34;;;;;;;10.93;3.92;;;27.30;77.50;;;;;;6184133;23;20028;-71
2023/07/05 21:54:01;;;;;;;8.93;4.22;;;27.30;77.80;;;;;;6183908;23;20084;-70
2023/07/05 21:56:29;;;;;;;8.60;4.10;;;27.20;77.70;;;;;;6183895;23;20008;-70
2023/07/05 21:58:59;;;;;;;11.38;4.00;;;27.20;78.10;;;;;;6184401;23;20339;-69
2023/07/05 22:01:28;;;;;;;10.23;3.83;;;27.20;78.30;;;;;;6184203;23;19996;-69
2023/07/05 22:03:58;;;;;;;9.82;3.90;;;27.10;78.20;;;;;;6184282;23;20005;-69
2023/07/05 22:06:28;;;;;;;12.73;4.47;;;27.10;78.70;;;;;;6184282;23;20008;-69
2023/07/05 22:08:55;;;;;;;10.60;4.18;;;27.10;78.50;;;;;;6184502;23;20325;-68
2023/07/05 22:11:21;;;;;;;9.25;3.65;;;27.00;78.90;;;;;;6184348;23;20076;-69
2023/07/05 22:13:48;;;;;;;9.80;4.10;;;27.00;79.20;;;;;;6184374;23;20001;-71
2023/07/05 22:16:17;;;;;;;9.90;4.00;;;27.00;79.20;;;;;;6184795;23;20289;-70
2023/07/05 22:18:44;;;;;;;10.60;3.95;;;26.90;79.20;;;;;;6184746;23;20005;-70
2023/07/05 22:21:12;;;;;;;12.63;4.28;;;26.90;79.40;;;;;;6184458;23;20017;-69
2023/07/05 22:23:38;;;;;;;10.50;4.40;;;26.90;79.50;;;;;;6184542;23;20016;-69
2023/07/05 22:26:04;;;;;;;10.52;4.20;;;26.80;79.60;;;;;;6184396;23;20001;-70
2023/07/05 22:28:31;;;;;;;12.10;4.57;;;26.80;79.80;;;;;;6184489;23;20385;-69
2023/07/05 22:30:57;;;;;;;9.52;4.43;;;26.80;79.80;;;;;;6184562;23;20064;-68
2023/07/05 22:33:23;;;;;;;12.93;4.50;;;26.80;80.00;;;;;;6184433;23;20005;-70
2023/07/05 22:35:49;;;;;;;11.68;4.65;;;26.80;79.90;;;;;;6184255;23;19997;-69
2023/07/05 22:38:16;;;;;;;10.80;4.25;;;26.80;79.90;;;;;;6196049;23;20017;-69
2023/07/05 22:40:43;;;;;;;9.27;4.93;;;26.70;79.90;;;;;;6187796;23;20004;-69
2023/07/05 22:43:09;;;;;;;10.27;4.53;;;26.70;80.00;;;;;;6214756;23;20331;-69
2023/07/05 22:45:36;;;;;;;10.18;4.45;;;26.70;80.30;;;;;;6214326;23;20011;-69
2023/07/05 22:48:02;;;;;;;8.65;4.05;;;26.70;80.30;;;;;;6213955;23;20066;-69
2023/07/05 22:50:28;;;;;;;12.77;4.70;;;26.60;80.60;;;;;;6214610;23;20004;-68
2023/07/05 22:52:54;;;;;;;10.60;4.35;;;26.60;80.60;;;;;;6215141;23;19996;-70
2023/07/05 22:55:19;;;;;;;12.05;4.30;;;26.60;80.30;;;;;;6214779;23;20001;-69
2023/07/05 22:57:45;;;;;;;10.23;4.85;;;26.60;80.60;;;;;;6213939;23;20005;-69
2023/07/05 23:00:17;;;;;;;8.48;4.55;;;26.60;80.70;;;;;;6214686;23;20461;-70
2023/07/05 23:02:44;;;;;;;12.60;4.90;;;26.50;80.80;;;;;;6214730;23;20008;-72
2023/07/05 23:05:11;;;;;;;10.25;4.63;;;26.50;80.90;;;;;;6214671;23;20001;-68
2023/07/05 23:07:37;;;;;;;10.93;4.55;;;26.50;80.90;;;;;;6214423;23;20408;-68
2023/07/05 23:10:02;;;;;;;9.57;4.68;;;26.50;81.00;;;;;;6214252;23;20014;-70
2023/07/05 23:12:28;;;;;;;8.93;4.85;;;26.50;81.20;;;;;;6214529;23;20023;-69
2023/07/05 23:14:54;;;;;;;10.15;4.70;;;26.50;81.20;;;;;;6187592;23;20016;-69
2023/07/05 23:17:20;;;;;;;10.88;4.07;;;26.50;80.90;;;;;;6214299;23;20038;-70
2023/07/05 23:19:46;;;;;;;10.93;4.63;;;26.60;81.10;;;;;;6214169;23;20457;-70
2023/07/05 23:22:12;;;;;;;12.48;4.70;;;26.60;81.10;;;;;;6213853;23;19997;-70
2023/07/05 23:24:38;;;;;;;17.42;5.20;;;26.60;81.20;;;;;;6213930;23;20028;-70
2023/07/05 23:27:05;;;;;;;11.07;4.40;;;26.50;81.30;;;;;;6214238;23;20005;-70
2023/07/05 23:29:30;;;;;;;9.50;4.90;;;26.50;81.30;;;;;;6214268;23;20036;-69
2023/07/05 23:32:00;;;;;;;10.23;4.30;;;26.60;82.00;;;;;;6214347;23;20012;-71
2023/07/05 23:34:26;;;;;;;8.38;4.35;;;26.60;81.40;;;;;;6216170;23;20449;-71
2023/07/05 23:36:56;;;;;;;9.38;4.30;;;26.50;81.30;;;;;;6215853;23;20003;-70
2023/07/05 23:39:22;;;;;;;10.30;4.57;;;26.50;81.30;;;;;;6216145;23;20426;-69
2023/07/05 23:41:49;;;;;;;13.30;5.15;;;26.50;81.20;;;;;;6215648;23;20058;-70
2023/07/05 23:44:21;;;;;;;9.85;4.28;;;26.50;81.50;;;;;;6215835;23;20375;-71
2023/07/05 23:46:47;;;;;;;16.27;4.70;;;26.50;81.40;;;;;;6215839;23;20434;-70
2023/07/05 23:49:13;;;;;;;9.45;4.60;;;26.50;81.60;;;;;;6216219;23;20020;-71
2023/07/05 23:51:42;;;;;;;10.15;4.38;;;26.50;81.70;;;;;;6216052;23;20430;-71
2023/07/05 23:54:08;;;;;;;11.63;4.90;;;26.50;81.90;;;;;;6215817;23;20012;-71
2023/07/05 23:56:46;;;;;;;11.18;4.63;;;26.50;82.10;;;;;;6216055;23;20011;-70
2023/07/05 23:59:16;;;;;;;10.35;4.70;;;26.40;82.40;;;;;;6216298;23;20012;-70
